Time;durP1;ratioP1;P1;durP2;ratioP2;P2;SDS_P1;SDS_P2;PMS_P1;PMS_P2;Temp;Humidity;BMP_temperature;BMP_pressure;BME280_temperature;BME280_humidity;BME280_pressure;Samples;Min_cycle;Max_cycle;Signal;HPM_P1;HPM_P2
2021/03/25 05:23:05;;;;;;;25.92;17.75;;;;;;;8.74;50.58;101045.44;5310171;26;20135;-82
2021/03/25 05:25:38;;;;;;;27.80;19.17;;;;;;;8.53;51.93;101054.78;5386894;26;20075;-84
2021/03/25 05:49:36;;;;;;;30.27;19.92;;;;;;;8.92;50.44;101055.25;5359597;26;20102;-81
2021/03/25 05:52:41;;;;;;;33.97;20.52;;;;;;;9.18;49.86;101066.03;5387912;26;20058;-81
2021/03/25 05:55:38;;;;;;;29.35;19.30;;;;;;;9.20;49.65;101066.91;5388186;26;20103;-81
2021/03/25 05:58:18;;;;;;;33.88;18.30;;;;;;;8.72;50.46;101058.50;5368040;26;20122;-82
2021/03/25 12:19:21;;;;;;;28.73;20.88;;;;;;;17.98;28.74;100909.88;5320932;27;19967;-81
2021/03/25 12:22:11;;;;;;;29.85;20.58;;;;;;;18.39;28.71;100904.22;5304656;27;20037;-85
2021/03/25 14:31:35;;;;;;;27.92;19.95;;;;;;;19.35;28.36;100781.28;5328015;26;20056;-81
2021/03/25 15:41:20;;;;;;;26.60;18.67;;;;;;;17.45;30.92;100735.91;5342162;26;20068;-82
2021/03/25 15:43:51;;;;;;;30.30;24.00;;;;;;;17.73;30.35;100732.44;5367160;26;20584;-82
2021/03/25 15:46:30;;;;;;;37.08;24.30;;;;;;;16.87;31.72;100732.22;5387410;26;20078;-83
2021/03/25 15:48:57;;;;;;;90.30;25.10;;;;;;;16.34;32.95;100734.41;5387157;26;20049;-83
2021/03/25 15:51:26;;;;;;;41.13;20.20;;;;;;;16.98;32.14;100737.25;5387555;26;20063;-87
2021/03/25 15:53:54;;;;;;;27.98;20.90;;;;;;;17.38;31.14;100734.38;5387196;26;20107;-83
2021/03/25 15:56:27;;;;;;;30.42;21.67;;;;;;;17.05;31.50;100738.81;5387485;26;20108;-83
2021/03/25 15:58:54;;;;;;;122.78;27.60;;;;;;;16.95;31.84;100739.97;5386832;26;20146;-82
2021/03/25 16:01:20;;;;;;;34.50;24.10;;;;;;;16.48;32.97;100739.38;5387079;26;20075;-84
2021/03/25 16:03:47;;;;;;;30.98;21.83;;;;;;;16.91;32.33;100746.25;5387204;26;20094;-83
2021/03/25 16:06:15;;;;;;;32.58;23.45;;;;;;;16.91;32.23;100746.25;5386978;26;20047;-83
2021/03/25 16:08:42;;;;;;;30.95;23.65;;;;;;;16.91;32.14;100746.25;5386751;26;20398;-84
2021/03/25 16:11:09;;;;;;;51.05;23.87;;;;;;;16.69;32.29;100746.81;5366752;26;20107;-83
2021/03/25 16:13:37;;;;;;;30.37;20.73;;;;;;;16.53;32.99;100751.63;5386754;26;20127;-83
2021/03/25 16:16:03;;;;;;;31.08;23.70;;;;;;;16.13;33.46;100752.56;5386952;26;20047;-83
2021/03/25 16:18:31;;;;;;;31.45;24.70;;;;;;;16.29;33.24;100746.91;5387243;26;20130;-83
2021/03/25 16:20:58;;;;;;;29.75;21.95;;;;;;;16.04;33.67;100750.13;5386968;26;20056;-84
2021/03/25 16:23:31;;;;;;;147.98;30.08;;;;;;;16.19;33.29;100750.69;5386575;26;20106;-84
2021/03/25 16:25:59;;;;;;;29.83;21.17;;;;;;;16.36;32.88;100753.81;5387285;26;20071;-83
2021/03/25 16:28:28;;;;;;;34.00;23.73;;;;;;;15.81;34.12;100755.06;5386946;26;20066;-84
2021/03/25 16:30:55;;;;;;;38.35;27.70;;;;;;;16.20;33.46;100755.94;5386446;26;20108;-84
2021/03/25 16:33:21;;;;;;;39.45;27.25;;;;;;;16.49;33.20;100755.25;5386474;26;20056;-84
2021/03/25 16:35:49;;;;;;;40.53;28.65;;;;;;;16.14;33.66;100764.03;5387031;26;20051;-84
2021/03/25 16:38:21;;;;;;;39.63;26.02;;;;;;;16.69;32.66;100759.19;5386658;26;20067;-83
2021/03/25 16:40:48;;;;;;;58.63;28.83;;;;;;;16.57;33.08;100755.94;5386794;26;20067;-83
2021/03/25 16:43:31;;;;;;;38.83;28.95;;;;;;;16.80;32.79;100759.84;5387201;26;20539;-83
2021/03/25 16:46:01;;;;;;;35.13;24.48;;;;;;;16.83;32.62;100761.53;5387173;26;20481;-84
2021/03/25 16:48:28;;;;;;;35.72;26.40;;;;;;;17.08;32.16;100759.09;5386885;26;20465;-84
2021/03/25 16:50:55;;;;;;;30.88;22.75;;;;;;;17.04;31.95;100766.28;5386790;26;20060;-84
2021/03/25 16:53:26;;;;;;;35.38;25.60;;;;;;;17.13;32.07;100763.38;5386830;26;20104;-83
2021/03/25 16:55:52;;;;;;;40.97;30.33;;;;;;;17.17;31.99;100761.50;5386892;26;20066;-85
2021/03/25 16:58:21;;;;;;;88.32;30.90;;;;;;;17.26;31.86;100769.22;5387160;26;20649;-84
2021/03/25 17:00:50;;;;;;;60.85;30.52;;;;;;;17.04;31.87;100758.31;5386580;26;20111;-84
2021/03/25 17:03:17;;;;;;;59.60;30.40;;;;;;;17.16;31.74;100767.75;5386803;26;20071;-83
2021/03/25 17:05:46;;;;;;;61.30;30.25;;;;;;;17.23;31.65;100764.84;5387013;26;20051;-84
2021/03/25 17:08:13;;;;;;;67.93;33.60;;;;;;;17.23;31.86;100766.63;5386347;26;20557;-83
2021/03/25 17:10:42;;;;;;;44.80;25.25;;;;;;;17.14;32.08;100766.91;5386690;26;20060;-84
2021/03/25 17:13:10;;;;;;;49.15;28.10;;;;;;;16.94;32.77;100768.31;5386893;26;20070;-84
2021/03/25 17:15:38;;;;;;;38.10;27.95;;;;;;;16.92;32.89;100771.91;5366681;26;20051;-84
2021/03/25 17:18:05;;;;;;;30.67;22.90;;;;;;;16.90;32.86;100774.59;5366361;26;20115;-83
2021/03/25 17:20:36;;;;;;;27.80;19.77;;;;;;;16.89;32.62;100772.87;5386538;26;20067;-84
2021/03/25 17:23:06;;;;;;;31.70;21.15;;;;;;;16.81;32.71;100780.16;5386679;26;20119;-84
2021/03/25 17:25:35;;;;;;;31.00;21.92;;;;;;;16.84;32.59;100773.88;5386623;26;20075;-84
2021/03/25 17:28:04;;;;;;;25.52;16.35;;;;;;;16.87;32.39;100782.63;5386672;26;20453;-84
2021/03/25 17:30:32;;;;;;;34.78;23.05;;;;;;;16.78;32.58;100780.22;5386358;26;20205;-85
2021/03/25 17:33:01;;;;;;;33.35;21.08;;;;;;;16.76;32.59;100787.34;5386880;26;20079;-85
2021/03/25 17:35:29;;;;;;;28.95;21.77;;;;;;;16.76;32.60;100782.03;5386384;26;20134;-86
2021/03/25 17:37:57;;;;;;;35.95;23.20;;;;;;;16.62;32.86;100790.31;5386662;26;20064;-84
2021/03/25 17:40:25;;;;;;;30.92;23.58;;;;;;;16.39;33.47;100797.97;5386648;26;20466;-85
2021/03/25 17:42:52;;;;;;;33.70;24.20;;;;;;;16.25;33.77;100796.47;5367020;26;20474;-85
2021/03/25 17:45:42;;;;;;;34.63;22.55;;;;;;;16.23;33.80;100792.13;5367055;26;20115;-85
2021/03/25 17:48:12;;;;;;;31.45;22.25;;;;;;;16.41;33.37;100804.94;5367249;26;20048;-86
2021/03/25 17:50:39;;;;;;;37.03;23.23;;;;;;;16.31;34.01;100803.44;5367327;26;20534;-84
2021/03/25 17:53:06;;;;;;;37.33;23.87;;;;;;;15.98;35.21;100811.22;5387732;26;20056;-85
2021/03/25 17:55:34;;;;;;;41.85;26.15;;;;;;;15.75;35.98;100810.84;5387006;26;20494;-84
2021/03/25 17:58:02;;;;;;;31.58;22.27;;;;;;;15.62;35.63;100819.00;5387495;26;20051;-85
2021/03/25 18:00:35;;;;;;;36.65;23.35;;;;;;;15.57;35.45;100820.00;5366765;26;20083;-84
2021/03/25 18:26:28;;;;;;;33.50;21.17;;;;;;;13.94;39.23;100854.31;5335078;26;20076;-86
2021/03/25 18:28:55;;;;;;;32.55;21.08;;;;;;;13.86;39.16;100858.81;5364479;26;20056;-84
2021/03/25 18:31:25;;;;;;;28.77;21.37;;;;;;;13.75;39.72;100864.19;5364449;26;20048;-84
2021/03/25 18:33:52;;;;;;;34.35;20.40;;;;;;;13.97;38.86;100863.94;5364744;26;20052;-84
2021/03/25 18:36:23;;;;;;;34.33;21.45;;;;;;;13.98;38.50;100866.56;5364792;26;20060;-84
2021/03/25 18:38:50;;;;;;;37.78;21.45;;;;;;;13.93;39.86;100870.16;5344670;26;20060;-84
2021/03/25 18:41:19;;;;;;;45.20;31.52;;;;;;;13.75;40.71;100880.03;5344272;26;20532;-84
2021/03/25 18:43:46;;;;;;;63.53;44.58;;;;;;;13.73;39.83;100876.53;5364984;26;20063;-84
2021/03/25 18:46:18;;;;;;;39.78;27.75;;;;;;;13.61;39.56;100879.31;5364567;26;20187;-84
2021/03/25 18:48:48;;;;;;;44.42;30.73;;;;;;;13.69;39.18;100888.03;5364617;26;20053;-84
2021/03/25 18:51:24;;;;;;;49.17;31.25;;;;;;;13.79;38.57;100889.66;5364697;26;20074;-85
2021/03/25 18:53:56;;;;;;;68.80;33.80;;;;;;;13.74;38.75;100888.00;5364407;26;20108;-84
2021/03/25 18:56:24;;;;;;;61.17;37.22;;;;;;;13.08;40.51;100891.22;5364665;26;20751;-84
2021/03/25 18:58:50;;;;;;;59.92;38.22;;;;;;;13.09;40.47;100893.00;5344755;26;20078;-84
2021/03/25 19:01:17;;;;;;;65.15;47.28;;;;;;;12.80;40.89;100902.00;5364585;26;20051;-84
2021/03/25 19:03:44;;;;;;;134.05;82.22;;;;;;;13.06;40.80;100904.44;5364526;26;20063;-84
2021/03/25 19:06:15;;;;;;;93.32;60.00;;;;;;;12.87;41.40;100903.69;5364522;26;20482;-85
2021/03/25 19:08:42;;;;;;;72.57;48.95;;;;;;;12.92;41.18;100904.53;5344606;26;20069;-84
2021/03/25 19:11:13;;;;;;;54.92;36.85;;;;;;;12.68;42.20;100910.00;5364546;26;20354;-84
2021/03/25 19:13:40;;;;;;;52.58;35.70;;;;;;;12.32;44.02;100909.28;5344686;26;20056;-84
2021/03/25 19:16:07;;;;;;;62.72;41.92;;;;;;;12.57;43.09;100909.16;5344550;26;20052;-84
2021/03/25 19:18:35;;;;;;;78.35;49.47;;;;;;;12.59;43.35;100912.66;5364172;26;20064;-84
2021/03/25 19:21:03;;;;;;;89.68;56.83;;;;;;;12.32;44.02;100917.19;5344600;26;20048;-85
2021/03/25 19:23:31;;;;;;;100.90;63.10;;;;;;;11.97;44.78;100920.88;5364802;26;20178;-84
2021/03/25 19:25:58;;;;;;;99.50;63.08;;;;;;;12.20;44.13;100919.88;5363960;26;20408;-84
2021/03/25 19:28:26;;;;;;;83.85;51.42;;;;;;;12.06;44.22;100919.97;5364599;26;20496;-85
2021/03/25 19:30:53;;;;;;;72.40;46.65;;;;;;;12.05;44.60;100915.56;5344079;26;20059;-85
2021/03/25 19:33:21;;;;;;;64.87;41.25;;;;;;;11.96;45.15;100920.84;5364706;26;20067;-84
2021/03/25 19:35:52;;;;;;;64.22;42.17;;;;;;;11.91;44.86;100910.34;5344490;26;20065;-84
2021/03/25 19:38:25;;;;;;;53.80;35.78;;;;;;;11.52;44.35;100906.88;5364829;26;20531;-84
2021/03/25 19:40:53;;;;;;;;;;;;;;;11.22;44.27;100918.31;5364747;26;20051;-85
2021/03/25 19:43:25;;;;;;;37.72;23.92;;;;;;;11.43;43.43;100922.69;5364692;26;19974;-84
2021/03/25 19:45:53;;;;;;;33.15;22.17;;;;;;;10.61;43.71;100926.13;5364420;26;20056;-84
2021/03/25 19:48:20;;;;;;;38.20;25.12;;;;;;;10.74;42.61;100935.81;5344343;26;20091;-85
2021/03/25 19:50:48;;;;;;;37.10;25.60;;;;;;;10.79;41.59;100931.41;5344466;26;20052;-85
2021/03/25 19:53:16;;;;;;;35.35;24.25;;;;;;;10.74;42.77;100927.91;5364471;26;20063;-84
2021/03/25 19:55:45;;;;;;;45.45;25.33;;;;;;;10.71;42.58;100927.00;5344228;26;20112;-84
2021/03/25 19:58:12;;;;;;;39.47;24.23;;;;;;;10.79;42.45;100930.53;5364549;26;20538;-84
2021/03/25 20:00:42;;;;;;;36.80;26.15;;;;;;;10.89;42.39;100920.03;5364514;26;20060;-85
2021/03/25 20:03:10;;;;;;;36.97;23.95;;;;;;;10.88;42.19;100930.53;5344174;26;20173;-85
2021/03/25 20:05:46;;;;;;;38.65;23.33;;;;;;;10.66;42.13;100935.78;5364456;26;20060;-84
2021/03/25 20:08:17;;;;;;;34.72;22.15;;;;;;;10.62;41.98;100934.03;5364412;26;20070;-84
2021/03/25 20:10:45;;;;;;;42.42;29.55;;;;;;;10.53;41.39;100940.97;5364654;26;20048;-84
2021/03/25 20:13:13;;;;;;;35.08;23.20;;;;;;;10.30;42.66;100940.94;5344580;26;20102;-85
2021/03/25 20:15:47;;;;;;;37.42;26.35;;;;;;;10.38;41.66;100944.44;5364676;26;20076;-85
2021/03/25 20:18:17;;;;;;;37.85;23.48;;;;;;;10.55;42.61;100949.75;5344192;26;20056;-84
2021/03/25 20:20:45;;;;;;;33.13;23.58;;;;;;;10.60;42.45;100951.53;5344732;26;20402;-84
2021/03/25 20:23:14;;;;;;;31.15;21.25;;;;;;;10.77;42.22;100954.19;5364486;26;20060;-84
2021/03/25 20:26:02;;;;;;;39.90;24.00;;;;;;;10.79;41.96;100951.56;5347619;26;20063;-84
2021/03/25 20:28:29;;;;;;;41.67;26.27;;;;;;;10.62;42.55;100949.78;5364320;26;20056;-84
2021/03/25 20:30:59;;;;;;;43.72;26.48;;;;;;;10.59;42.87;100954.12;5364535;26;20048;-84
2021/03/25 20:33:28;;;;;;;40.45;28.08;;;;;;;10.40;42.91;100961.97;5344531;26;20045;-84
2021/03/25 20:35:58;;;;;;;36.97;26.70;;;;;;;10.46;42.74;100959.34;5344757;26;20118;-86
2021/03/25 20:38:25;;;;;;;47.78;30.05;;;;;;;10.50;42.34;100960.25;5344683;26;20091;-84
2021/03/25 20:40:54;;;;;;;37.60;24.45;;;;;;;10.51;42.62;100969.03;5364108;26;20405;-84
2021/03/25 20:43:25;;;;;;;34.60;25.10;;;;;;;10.25;42.90;100964.50;5344367;26;20319;-84
2021/03/25 20:45:55;;;;;;;40.45;29.10;;;;;;;10.54;42.74;100971.66;5364455;26;20120;-84
2021/03/25 20:48:22;;;;;;;47.17;30.88;;;;;;;10.26;43.72;100966.25;5344319;26;20429;-86
2021/03/25 20:50:49;;;;;;;41.00;27.45;;;;;;;10.05;44.00;100964.38;5364472;26;20053;-84
2021/03/25 20:53:18;;;;;;;48.90;35.78;;;;;;;10.02;43.49;100967.00;5364378;26;20058;-84
2021/03/25 20:55:45;;;;;;;54.72;39.95;;;;;;;9.96;43.75;100973.09;5343899;26;20056;-84
2021/03/25 20:58:13;;;;;;;54.47;37.35;;;;;;;9.93;44.18;100972.19;5343983;26;20444;-84
2021/03/25 21:00:42;;;;;;;39.90;28.45;;;;;;;9.61;44.40;100977.22;5364225;26;20068;-84
2021/03/25 21:03:12;;;;;;;40.88;26.58;;;;;;;9.62;43.46;100963.22;5364332;26;20067;-83
2021/03/25 21:05:41;;;;;;;37.55;23.25;;;;;;;9.62;43.76;100972.00;5344606;26;20056;-84
2021/03/25 21:08:09;;;;;;;32.03;22.00;;;;;;;9.47;43.15;100987.59;5364156;26;20511;-84
2021/03/25 21:10:36;;;;;;;38.45;22.73;;;;;;;9.14;44.37;100985.56;5344271;26;20503;-84
2021/03/25 21:13:04;;;;;;;40.95;24.95;;;;;;;9.24;44.40;100983.06;5364218;26;20170;-84
2021/03/25 21:15:35;;;;;;;47.70;28.15;;;;;;;9.09;45.07;100988.16;5344352;26;20112;-84
2021/03/25 21:18:01;;;;;;;56.33;32.42;;;;;;;9.12;45.11;100977.72;5364860;26;20350;-84
2021/03/25 21:20:29;;;;;;;42.55;28.27;;;;;;;9.13;45.02;100978.59;5365092;26;20067;-84
2021/03/25 21:22:58;;;;;;;45.40;29.40;;;;;;;8.01;48.94;100991.22;5365081;26;20561;-83
2021/03/25 21:25:27;;;;;;;52.33;33.03;;;;;;;8.57;46.56;100992.84;5344613;26;20807;-84
2021/03/25 21:27:55;;;;;;;49.83;33.10;;;;;;;8.46;45.99;100995.31;5364982;26;20072;-86
2021/03/25 21:30:25;;;;;;;45.58;30.10;;;;;;;8.62;45.94;100999.91;5364660;26;20058;-83
2021/03/25 21:32:52;;;;;;;;;;;;;;;8.64;46.94;100992.03;5345301;26;20043;-84
2021/03/25 21:35:19;;;;;;;45.92;30.88;;;;;;;8.53;45.88;100999.78;5345090;26;19977;-83
2021/03/25 21:37:46;;;;;;;45.45;30.00;;;;;;;8.07;48.68;101003.50;5365190;26;20053;-84
2021/03/25 21:40:17;;;;;;;49.05;30.70;;;;;;;8.16;47.08;100993.16;5344828;26;20063;-86
2021/03/25 21:42:43;;;;;;;48.25;32.00;;;;;;;8.28;46.41;100997.69;5345046;26;20053;-84
2021/03/25 21:45:20;;;;;;;49.85;32.75;;;;;;;8.37;47.83;100997.78;5344575;26;20091;-84
2021/03/25 21:47:47;;;;;;;51.75;33.85;;;;;;;8.30;47.58;100996.84;5344813;26;20059;-84
2021/03/25 21:50:13;;;;;;;54.38;36.47;;;;;;;8.17;47.42;101001.03;5365190;26;20062;-83
2021/03/25 21:52:40;;;;;;;56.45;38.53;;;;;;;8.13;48.29;101003.59;5365140;26;20194;-83
2021/03/25 21:55:07;;;;;;;45.45;28.95;;;;;;;7.69;49.19;100998.59;5365464;26;20149;-84
2021/03/25 21:57:33;;;;;;;47.70;31.67;;;;;;;7.94;48.60;101008.56;5345003;26;20095;-84
2021/03/25 21:59:59;;;;;;;53.00;35.10;;;;;;;7.82;49.85;101010.09;5364602;26;20115;-84
2021/03/25 22:02:26;;;;;;;48.30;31.62;;;;;;;7.72;50.00;101009.09;5365010;26;20055;-83
2021/03/25 22:04:52;;;;;;;50.83;32.72;;;;;;;7.74;48.94;101008.25;5365123;26;20094;-84
2021/03/25 22:07:19;;;;;;;57.88;34.28;;;;;;;7.84;48.16;101013.63;5344863;26;20067;-83
2021/03/25 22:09:45;;;;;;;51.47;32.78;;;;;;;7.76;48.47;101016.13;5365028;26;20365;-83
2021/03/25 22:12:12;;;;;;;43.50;27.62;;;;;;;8.14;47.78;101016.69;5344689;26;20054;-85
2021/03/25 22:14:38;;;;;;;51.53;32.67;;;;;;;8.01;48.01;101024.34;5364860;26;20071;-83
2021/03/25 22:17:04;;;;;;;48.05;31.40;;;;;;;7.93;48.75;101021.62;5365060;26;20071;-83
2021/03/25 22:19:31;;;;;;;57.25;33.17;;;;;;;8.02;48.89;101026.09;5364930;26;20066;-83
2021/03/25 22:21:57;;;;;;;42.78;27.17;;;;;;;7.96;49.14;101027.75;5345066;26;20048;-83
2021/03/25 22:24:26;;;;;;;39.88;28.20;;;;;;;7.61;49.21;101023.72;5365095;26;20487;-84
2021/03/25 22:26:52;;;;;;;41.37;28.17;;;;;;;7.41;49.26;101021.69;5365012;26;21129;-87
2021/03/25 22:29:19;;;;;;;44.17;26.52;;;;;;;7.54;48.71;101020.13;5364661;26;20048;-86
2021/03/25 22:31:46;;;;;;;50.00;32.42;;;;;;;7.34;48.67;101021.53;5344993;26;20704;-83
2021/03/25 22:34:12;;;;;;;39.85;24.80;;;;;;;7.38;49.14;101025.94;5344771;26;20119;-83
2021/03/25 22:36:39;;;;;;;36.38;24.00;;;;;;;7.05;50.10;101029.72;5365002;26;20122;-84
2021/03/25 22:39:06;;;;;;;42.80;27.95;;;;;;;7.00;50.17;101028.75;5344559;26;20155;-82
2021/03/25 22:41:32;;;;;;;43.92;29.15;;;;;;;6.99;50.65;101032.22;5364288;26;20049;-83
2021/03/25 22:44:01;;;;;;;37.25;25.08;;;;;;;7.44;49.03;101023.44;5364716;26;20056;-83
2021/03/25 22:46:29;;;;;;;52.20;30.30;;;;;;;7.72;48.94;101011.72;5364932;26;20067;-83
2021/03/25 22:48:55;;;;;;;49.22;34.03;;;;;;;7.69;48.73;101017.75;5364563;26;20428;-83
2021/03/25 22:51:29;;;;;;;;;;;;;;;7.71;48.60;101020.41;5365271;26;20517;-82
2021/03/25 22:53:57;;;;;;;49.95;29.87;;;;;;;7.51;48.99;101022.72;5364951;26;19979;-83
2021/03/25 22:56:23;;;;;;;44.20;28.48;;;;;;;7.39;48.30;101031.22;5364837;26;20090;-83
2021/03/25 22:58:50;;;;;;;45.63;27.50;;;;;;;7.38;48.08;101029.47;5344589;26;20066;-85
2021/03/25 23:01:30;;;;;;;39.35;25.73;;;;;;;7.54;47.63;101022.75;5345005;26;20060;-83
2021/03/25 23:50:44;;;;;;;36.78;23.60;;;;;;;7.00;49.50;101031.38;5339929;26;20064;-83
2021/03/25 23:53:16;;;;;;;35.03;23.50;;;;;;;6.94;49.55;101033.87;5364475;26;20059;-84
2021/03/25 23:55:47;;;;;;;36.63;22.33;;;;;;;7.07;49.47;101030.66;5364713;26;20049;-83
2021/03/25 23:58:23;;;;;;;33.72;22.02;;;;;;;7.04;49.70;101031.47;5364899;26;20088;-83
